Time;durP1;ratioP1;P1;durP2;ratioP2;P2;SDS_P1;SDS_P2;PMS_P1;PMS_P2;Temp;Humidity;BMP_temperature;BMP_pressure;BME280_temperature;BME280_humidity;BME280_pressure;Samples;Min_cycle;Max_cycle;Signal;HPM_P1;HPM_P2
2022/10/15 00:01:30;;;;;;;49.57;30.23;;;12.40;99.90;;;;;;5023709;28;20131;-70
2022/10/15 00:03:56;;;;;;;51.43;31.73;;;12.40;99.90;;;;;;5011743;28;20520;-70
2022/10/15 00:06:21;;;;;;;54.00;31.30;;;12.40;99.90;;;;;;5007057;28;20052;-70
2022/10/15 00:08:47;;;;;;;55.93;33.30;;;12.40;99.90;;;;;;5009677;28;20630;-70
2022/10/15 00:11:20;;;;;;;54.77;33.33;;;12.40;99.90;;;;;;5025401;28;20132;-70
2022/10/15 00:13:46;;;;;;;59.43;33.40;;;12.40;99.90;;;;;;5023384;28;20056;-70
2022/10/15 00:16:16;;;;;;;63.33;35.73;;;12.40;99.90;;;;;;5006523;28;20283;-70
2022/10/15 00:18:42;;;;;;;56.57;33.20;;;12.40;99.90;;;;;;5020631;28;20375;-70
2022/10/15 00:21:09;;;;;;;53.67;32.20;;;12.50;99.90;;;;;;5010346;28;20403;-70
2022/10/15 00:23:36;;;;;;;52.73;32.93;;;12.50;99.90;;;;;;5020262;28;20068;-70
2022/10/15 00:26:07;;;;;;;56.40;32.03;;;12.50;99.90;;;;;;5022661;28;20735;-70
2022/10/15 00:28:34;;;;;;;57.73;33.20;;;12.50;99.90;;;;;;5022363;28;20350;-70
2022/10/15 00:31:10;;;;;;;56.50;32.50;;;12.50;99.90;;;;;;5006691;28;20295;-70
2022/10/15 00:33:36;;;;;;;53.37;33.20;;;12.50;99.90;;;;;;5038849;28;20284;-70
2022/10/15 00:36:14;;;;;;;51.87;31.47;;;12.50;99.90;;;;;;5023581;28;20370;-70
2022/10/15 00:38:39;;;;;;;58.17;32.70;;;12.50;99.90;;;;;;5011568;28;20787;-70
2022/10/15 00:41:06;;;;;;;51.67;31.50;;;12.50;99.90;;;;;;5024001;28;20280;-70
2022/10/15 00:43:43;;;;;;;57.83;31.70;;;12.50;99.90;;;;;;5023085;28;20128;-70
2022/10/15 00:46:27;;;;;;;54.40;31.47;;;12.50;99.90;;;;;;5031148;28;20303;-70
2022/10/15 00:49:19;;;;;;;53.40;30.43;;;12.50;99.90;;;;;;5028553;28;20806;-70
2022/10/15 00:51:55;;;;;;;50.20;30.40;;;12.50;99.90;;;;;;5019924;28;20300;-70
2022/10/15 00:54:23;;;;;;;46.63;29.03;;;12.50;99.90;;;;;;5014155;28;20787;-70
2022/10/15 00:56:50;;;;;;;56.00;30.30;;;12.50;99.90;;;;;;5026066;28;20284;-69
2022/10/15 00:59:18;;;;;;;45.57;29.00;;;12.50;99.90;;;;;;5026138;28;20822;-70
2022/10/15 01:01:44;;;;;;;52.20;30.53;;;12.50;99.90;;;;;;5027273;28;20366;-70
2022/10/15 01:04:11;;;;;;;44.47;28.83;;;12.50;99.90;;;;;;5006526;28;20383;-70
2022/10/15 01:06:38;;;;;;;55.37;31.33;;;12.50;99.90;;;;;;5027297;28;20042;-70
2022/10/15 01:09:04;;;;;;;48.20;29.00;;;12.50;99.90;;;;;;5030680;28;20299;-70
2022/10/15 01:11:42;;;;;;;51.23;28.53;;;12.50;99.90;;;;;;5008162;28;20292;-70
2022/10/15 01:14:26;;;;;;;55.13;31.67;;;12.50;99.90;;;;;;5038507;28;20751;-70
2022/10/15 01:17:13;;;;;;;49.40;28.10;;;12.50;99.90;;;;;;5020498;28;20287;-69
2022/10/15 01:20:03;;;;;;;49.37;27.27;;;12.50;99.90;;;;;;5003711;28;20378;-70
2022/10/15 01:23:10;;;;;;;54.63;26.43;;;12.50;99.90;;;;;;5022999;28;20280;-70
2022/10/15 01:26:00;;;;;;;40.13;24.43;;;12.50;99.90;;;;;;5038917;28;20300;-70
2022/10/15 01:29:06;;;;;;;38.07;23.53;;;12.50;99.90;;;;;;5016835;28;20311;-69
2022/10/15 01:31:51;;;;;;;39.15;23.35;;;12.60;99.90;;;;;;5020929;28;20290;-70
2022/10/15 01:34:19;;;;;;;40.58;20.90;;;12.60;99.90;;;;;;5026325;28;20049;-70
2022/10/15 01:36:56;;;;;;;39.60;22.13;;;12.50;99.90;;;;;;5022770;28;20127;-70
2022/10/15 01:39:31;;;;;;;41.27;21.73;;;12.50;99.90;;;;;;5025512;28;20319;-70
2022/10/15 01:42:04;;;;;;;34.97;20.30;;;12.50;99.90;;;;;;5022858;28;20288;-70
2022/10/15 01:44:41;;;;;;;39.50;21.47;;;12.50;99.90;;;;;;5026965;28;20133;-70
2022/10/15 01:47:19;;;;;;;35.73;19.20;;;12.50;99.90;;;;;;5026376;28;20312;-70
2022/10/15 01:49:46;;;;;;;30.90;18.53;;;12.50;99.90;;;;;;5024440;28;20782;-71
2022/10/15 01:52:17;;;;;;;33.27;17.77;;;12.50;99.90;;;;;;5026472;28;20284;-70
2022/10/15 01:54:46;;;;;;;29.77;18.03;;;12.50;99.90;;;;;;5026669;28;20502;-70
2022/10/15 01:57:13;;;;;;;33.80;19.57;;;12.50;99.90;;;;;;5026184;28;20276;-70
2022/10/15 01:59:41;;;;;;;34.17;19.97;;;12.50;99.90;;;;;;5009592;28;20339;-71
2022/10/15 02:02:07;;;;;;;34.40;20.93;;;12.50;99.90;;;;;;5023313;28;20312;-70
2022/10/15 02:04:33;;;;;;;44.07;24.37;;;12.50;99.90;;;;;;5026295;28;20738;-70
2022/10/15 02:07:01;;;;;;;48.37;25.90;;;12.40;99.90;;;;;;5029932;28;20099;-70
2022/10/15 02:09:43;;;;;;;45.93;26.17;;;12.40;99.90;;;;;;5025718;28;20049;-70
2022/10/15 02:12:26;;;;;;;46.30;25.90;;;12.50;99.90;;;;;;5009389;28;20276;-70
2022/10/15 02:15:20;;;;;;;46.63;25.97;;;12.40;99.90;;;;;;5007454;28;20281;-70
2022/10/15 02:17:54;;;;;;;55.83;27.93;;;12.40;99.90;;;;;;5025201;28;20293;-70
2022/10/15 02:20:26;;;;;;;56.00;29.40;;;12.40;99.90;;;;;;5025921;28;20426;-70
2022/10/15 02:23:06;;;;;;;54.60;27.67;;;12.40;99.90;;;;;;5030575;28;20037;-70
2022/10/15 02:25:34;;;;;;;52.17;29.23;;;12.40;99.90;;;;;;5022025;28;20342;-70
2022/10/15 02:28:03;;;;;;;53.63;29.63;;;12.40;99.90;;;;;;5009756;28;20280;-70
2022/10/15 02:30:30;;;;;;;55.20;29.50;;;12.40;99.90;;;;;;5012739;28;20280;-71
2022/10/15 02:32:57;;;;;;;51.83;28.27;;;12.40;99.90;;;;;;5025925;28;20284;-70
2022/10/15 02:35:25;;;;;;;55.23;29.70;;;12.40;99.90;;;;;;5026682;28;20280;-70
2022/10/15 02:37:53;;;;;;;51.63;28.30;;;12.40;99.90;;;;;;5017093;28;20284;-70
2022/10/15 02:40:26;;;;;;;52.60;29.17;;;12.40;99.90;;;;;;5025710;28;20284;-70
2022/10/15 02:42:52;;;;;;;58.17;30.77;;;12.40;99.90;;;;;;5025247;28;20767;-70
2022/10/15 02:45:19;;;;;;;56.40;30.00;;;12.40;99.90;;;;;;5013934;28;20335;-70
2022/10/15 02:47:45;;;;;;;52.83;28.37;;;12.30;99.90;;;;;;5028688;28;20278;-70
2022/10/15 02:50:10;;;;;;;53.63;29.73;;;12.30;99.90;;;;;;5013784;28;20314;-70
2022/10/15 02:52:36;;;;;;;51.53;28.47;;;12.30;99.90;;;;;;5024578;28;20057;-70
2022/10/15 02:55:02;;;;;;;52.00;28.73;;;12.30;99.90;;;;;;5009465;28;20105;-70
2022/10/15 02:57:27;;;;;;;51.00;28.37;;;12.30;99.90;;;;;;5007280;28;20103;-70
2022/10/15 02:59:53;;;;;;;51.77;27.73;;;12.30;99.90;;;;;;5025386;28;20132;-70
2022/10/15 03:02:19;;;;;;;54.33;29.23;;;12.30;99.90;;;;;;5027235;28;20570;-70
2022/10/15 03:04:45;;;;;;;57.07;28.83;;;12.30;99.90;;;;;;5006056;28;20116;-70
2022/10/15 03:07:10;;;;;;;49.83;28.13;;;12.20;99.90;;;;;;5025537;28;20032;-70
2022/10/15 03:09:36;;;;;;;51.93;27.20;;;12.20;99.90;;;;;;5009753;28;20048;-70
2022/10/15 03:12:02;;;;;;;54.87;28.50;;;12.20;99.90;;;;;;5025043;28;20076;-70
2022/10/15 03:14:27;;;;;;;52.13;27.97;;;12.20;99.90;;;;;;5024743;28;20037;-70
2022/10/15 03:16:53;;;;;;;54.40;28.23;;;12.20;99.90;;;;;;5025257;28;20049;-70
2022/10/15 03:19:19;;;;;;;54.70;30.10;;;12.20;99.90;;;;;;5008673;28;20047;-70
2022/10/15 03:21:44;;;;;;;53.17;27.67;;;12.20;99.90;;;;;;5012094;28;20041;-70
2022/10/15 03:24:10;;;;;;;54.03;29.87;;;12.20;99.90;;;;;;5008568;28;20050;-70
2022/10/15 03:26:36;;;;;;;58.30;30.90;;;12.20;99.90;;;;;;5027921;28;20073;-71
2022/10/15 03:29:02;;;;;;;57.07;31.13;;;12.20;99.90;;;;;;5024799;28;20048;-71
2022/10/15 03:31:27;;;;;;;69.50;32.37;;;12.20;99.90;;;;;;5012725;28;20045;-71
2022/10/15 03:33:53;;;;;;;58.73;29.90;;;12.20;99.90;;;;;;4997389;28;20045;-71
2022/10/15 03:36:19;;;;;;;59.63;30.43;;;12.20;99.90;;;;;;5027450;28;20044;-71
2022/10/15 03:38:44;;;;;;;64.43;31.83;;;12.20;99.90;;;;;;5028778;28;20037;-71
2022/10/15 03:41:10;;;;;;;64.20;30.70;;;12.20;99.90;;;;;;5024928;28;20045;-71
2022/10/15 03:43:36;;;;;;;57.80;30.47;;;12.20;99.90;;;;;;5007752;28;20045;-71
2022/10/15 03:46:03;;;;;;;58.53;29.63;;;12.20;99.90;;;;;;5028278;28;20032;-71
2022/10/15 03:48:29;;;;;;;59.03;30.93;;;12.20;99.90;;;;;;5028162;28;20857;-71
2022/10/15 03:50:55;;;;;;;60.70;31.47;;;12.10;99.90;;;;;;5008422;28;20286;-71
2022/10/15 03:53:22;;;;;;;59.67;31.87;;;12.20;99.90;;;;;;5027669;28;20772;-71
2022/10/15 03:55:47;;;;;;;63.93;33.30;;;12.20;99.90;;;;;;5026776;28;20279;-71
2022/10/15 03:58:13;;;;;;;59.10;32.23;;;12.20;99.90;;;;;;5024307;28;20298;-71
2022/10/15 04:00:43;;;;;;;63.43;34.87;;;12.20;99.90;;;;;;5025496;28;20049;-71
2022/10/15 04:03:09;;;;;;;63.33;35.43;;;12.20;99.90;;;;;;5026631;28;20479;-71
2022/10/15 04:05:35;;;;;;;61.03;33.53;;;12.20;99.90;;;;;;5007181;28;20310;-71
2022/10/15 04:08:02;;;;;;;66.83;33.50;;;12.20;99.90;;;;;;5025846;28;20038;-71
2022/10/15 04:10:28;;;;;;;60.40;31.47;;;12.30;99.90;;;;;;5025849;28;20338;-71
2022/10/15 04:12:54;;;;;;;60.77;31.20;;;12.30;99.90;;;;;;5023221;28;20295;-71
2022/10/15 04:15:20;;;;;;;60.10;30.20;;;12.30;99.90;;;;;;5023134;28;20284;-71
2022/10/15 04:17:46;;;;;;;59.90;31.00;;;12.30;99.90;;;;;;5024038;28;20656;-71
2022/10/15 04:20:12;;;;;;;55.50;31.23;;;12.20;99.90;;;;;;5019608;28;20058;-71
2022/10/15 04:22:37;;;;;;;54.83;29.23;;;12.20;99.90;;;;;;5006450;28;20124;-70
2022/10/15 04:25:04;;;;;;;50.10;29.47;;;12.20;99.90;;;;;;5022969;28;20308;-70
2022/10/15 04:27:30;;;;;;;57.10;29.80;;;12.20;99.90;;;;;;5023314;28;20072;-70
2022/10/15 04:29:55;;;;;;;55.23;30.07;;;12.20;99.90;;;;;;5022771;28;20279;-71
2022/10/15 04:32:21;;;;;;;54.47;29.80;;;12.20;99.90;;;;;;5005962;28;20049;-70
2022/10/15 04:34:48;;;;;;;48.97;28.10;;;12.20;99.90;;;;;;5023066;28;20563;-70
2022/10/15 04:37:13;;;;;;;54.43;29.90;;;12.20;99.90;;;;;;5027785;28;20052;-70
2022/10/15 04:39:39;;;;;;;54.77;30.70;;;12.20;99.90;;;;;;5022445;28;20654;-70
2022/10/15 04:42:05;;;;;;;48.50;28.37;;;12.20;99.90;;;;;;5027020;28;20047;-70
2022/10/15 04:44:30;;;;;;;49.17;28.70;;;12.10;99.90;;;;;;5023132;28;20435;-70
2022/10/15 04:46:57;;;;;;;53.97;30.03;;;12.10;99.90;;;;;;5027711;28;20057;-70
2022/10/15 04:49:22;;;;;;;57.90;29.93;;;12.10;99.90;;;;;;5022193;28;20046;-70
2022/10/15 04:51:48;;;;;;;51.10;29.30;;;12.10;99.90;;;;;;5005989;28;20315;-70
2022/10/15 04:54:14;;;;;;;54.17;28.20;;;12.10;99.90;;;;;;5022550;28;20449;-70
2022/10/15 04:56:39;;;;;;;55.43;29.57;;;12.10;99.90;;;;;;5006566;28;20038;-70
2022/10/15 04:59:07;;;;;;;56.93;30.63;;;12.00;99.90;;;;;;5020820;28;20539;-70
2022/10/15 05:01:33;;;;;;;50.23;29.20;;;12.00;99.90;;;;;;4987124;28;20069;-70
2022/10/15 05:03:58;;;;;;;50.33;30.97;;;12.00;99.90;;;;;;5012486;28;20691;-71
2022/10/15 05:06:24;;;;;;;51.07;30.13;;;12.00;99.90;;;;;;4986732;28;20073;-70
2022/10/15 05:08:50;;;;;;;53.23;29.23;;;12.00;99.90;;;;;;5021042;28;20550;-70
2022/10/15 05:11:19;;;;;;;55.13;30.67;;;12.00;99.90;;;;;;5006613;28;20111;-70
2022/10/15 05:13:44;;;;;;;60.33;30.80;;;12.00;99.90;;;;;;5026409;28;20283;-70
2022/10/15 05:16:22;;;;;;;57.57;32.10;;;12.00;99.90;;;;;;5006018;28;20331;-70
2022/10/15 05:18:50;;;;;;;57.63;30.93;;;12.00;99.90;;;;;;5037379;28;20110;-71
2022/10/15 05:21:17;;;;;;;60.60;31.43;;;12.00;99.90;;;;;;5028511;28;20768;-70
2022/10/15 05:23:43;;;;;;;58.33;32.47;;;12.00;99.90;;;;;;5026011;28;20280;-71
2022/10/15 05:26:28;;;;;;;58.77;32.57;;;11.90;99.90;;;;;;5030120;28;20488;-71
2022/10/15 05:28:56;;;;;;;58.67;31.27;;;11.90;99.90;;;;;;5022956;28;20343;-71
2022/10/15 05:31:23;;;;;;;56.57;32.33;;;11.90;99.90;;;;;;5024402;28;20736;-70
2022/10/15 05:33:51;;;;;;;62.10;33.20;;;11.90;99.90;;;;;;5030409;28;20653;-71
2022/10/15 05:36:22;;;;;;;67.53;34.07;;;11.90;99.90;;;;;;5031498;28;20782;-71
2022/10/15 05:38:50;;;;;;;60.90;33.50;;;11.80;99.90;;;;;;5025829;28;20284;-71
2022/10/15 05:41:16;;;;;;;58.53;33.80;;;11.80;99.90;;;;;;5026800;28;20718;-70
2022/10/15 05:43:45;;;;;;;65.03;32.50;;;11.80;99.90;;;;;;5025994;28;20315;-71
2022/10/15 05:46:10;;;;;;;64.27;34.23;;;11.80;99.90;;;;;;5030189;28;20303;-70
2022/10/15 05:48:36;;;;;;;62.50;33.47;;;11.80;99.90;;;;;;5009547;28;20292;-70
2022/10/15 05:51:09;;;;;;;58.60;33.40;;;11.80;99.90;;;;;;5016625;28;20045;-71
2022/10/15 05:53:36;;;;;;;57.33;31.97;;;11.70;99.90;;;;;;5026076;28;20081;-70
2022/10/15 05:56:02;;;;;;;67.40;34.67;;;11.60;99.90;;;;;;5022436;28;20358;-70
2022/10/15 05:58:28;;;;;;;59.43;32.57;;;11.60;99.90;;;;;;5025872;28;20406;-70
2022/10/15 06:00:56;;;;;;;58.73;33.23;;;11.50;99.90;;;;;;5022575;28;20296;-70
2022/10/15 06:03:22;;;;;;;66.87;34.57;;;11.40;99.90;;;;;;5008213;28;20508;-70
2022/10/15 06:05:48;;;;;;;64.10;35.37;;;11.40;99.90;;;;;;5024825;28;20315;-70
2022/10/15 06:08:14;;;;;;;59.23;33.60;;;11.30;99.90;;;;;;5024796;28;20351;-70
2022/10/15 06:10:40;;;;;;;61.63;35.63;;;11.30;99.90;;;;;;5024590;28;20383;-70
2022/10/15 06:13:06;;;;;;;80.57;39.43;;;11.30;99.90;;;;;;5027080;28;20045;-70
2022/10/15 06:15:32;;;;;;;71.80;37.50;;;11.30;99.90;;;;;;5025172;28;20105;-70
2022/10/15 06:17:59;;;;;;;67.77;36.37;;;11.40;99.90;;;;;;5008913;28;20048;-70
2022/10/15 06:20:26;;;;;;;75.87;39.67;;;11.40;99.90;;;;;;5027041;28;20788;-70
2022/10/15 06:22:56;;;;;;;72.67;37.17;;;11.40;99.90;;;;;;5013259;28;20285;-71
2022/10/15 06:25:21;;;;;;;75.83;39.67;;;11.40;99.90;;;;;;5025182;28;20429;-70
2022/10/15 06:27:47;;;;;;;70.57;40.03;;;11.40;99.90;;;;;;5027152;28;20284;-70
2022/10/15 06:30:13;;;;;;;75.90;38.30;;;11.40;99.90;;;;;;5010895;28;20040;-70
2022/10/15 06:32:38;;;;;;;82.00;40.10;;;11.40;99.90;;;;;;5030650;28;20036;-70
2022/10/15 06:35:05;;;;;;;78.47;39.07;;;11.50;99.90;;;;;;4978713;28;20045;-70
2022/10/15 06:37:30;;;;;;;74.73;39.83;;;11.50;99.90;;;;;;5027353;28;20045;-70
2022/10/15 06:39:56;;;;;;;70.57;39.67;;;11.50;99.90;;;;;;5008444;28;20738;-70
2022/10/15 06:42:22;;;;;;;73.43;40.30;;;11.50;99.90;;;;;;5028324;28;20086;-70
2022/10/15 06:44:47;;;;;;;74.30;39.53;;;11.60;99.90;;;;;;5010772;28;20049;-70
2022/10/15 06:47:13;;;;;;;84.00;43.03;;;11.60;99.90;;;;;;5028549;28;20033;-70
2022/10/15 06:49:39;;;;;;;75.30;39.10;;;11.60;99.90;;;;;;5010031;28;20389;-70
2022/10/15 06:52:04;;;;;;;83.63;41.13;;;11.70;99.90;;;;;;5026522;28;20492;-70
2022/10/15 06:54:30;;;;;;;75.93;41.50;;;11.70;99.90;;;;;;5026836;28;20041;-70
2022/10/15 06:56:56;;;;;;;89.43;43.60;;;11.70;99.90;;;;;;5024967;28;20056;-70
2022/10/15 06:59:22;;;;;;;76.97;40.47;;;11.80;99.90;;;;;;5024250;28;20065;-70
2022/10/15 07:01:47;;;;;;;82.97;42.07;;;11.80;99.90;;;;;;5026647;28;20056;-70
2022/10/15 07:04:13;;;;;;;83.77;43.97;;;11.90;99.90;;;;;;5027264;28;20053;-70
2022/10/15 07:06:40;;;;;;;84.13;43.93;;;12.00;99.90;;;;;;5026304;28;20042;-70
2022/10/15 07:09:06;;;;;;;86.53;44.00;;;12.10;99.90;;;;;;5011502;28;20144;-70
2022/10/15 07:11:31;;;;;;;82.50;41.67;;;12.20;99.90;;;;;;5026134;28;20378;-70
2022/10/15 07:13:57;;;;;;;80.20;41.57;;;12.20;99.90;;;;;;5010520;28;20356;-70
2022/10/15 07:16:23;;;;;;;79.77;41.50;;;12.30;99.90;;;;;;5012002;28;20540;-70
2022/10/15 07:18:49;;;;;;;82.97;41.70;;;12.30;99.90;;;;;;5024603;28;20045;-70
2022/10/15 07:21:14;;;;;;;80.50;41.17;;;12.40;99.90;;;;;;5023983;28;20098;-70
2022/10/15 07:23:40;;;;;;;83.37;42.47;;;12.40;99.90;;;;;;5007600;28;20057;-70
2022/10/15 07:26:06;;;;;;;79.80;41.53;;;12.40;99.90;;;;;;5008299;28;20056;-70
2022/10/15 07:28:32;;;;;;;85.53;42.90;;;12.40;99.90;;;;;;5024099;28;20037;-70
2022/10/15 07:31:06;;;;;;;79.70;41.93;;;12.50;99.90;;;;;;5024460;28;20041;-70
2022/10/15 07:33:33;;;;;;;83.97;42.67;;;12.50;99.90;;;;;;5026504;28;20042;-70
2022/10/15 07:36:06;;;;;;;77.27;42.10;;;12.50;99.90;;;;;;5023728;28;20136;-70
2022/10/15 07:38:32;;;;;;;77.27;41.03;;;12.60;99.90;;;;;;5022179;28;20354;-70
2022/10/15 07:41:00;;;;;;;76.77;40.83;;;12.60;99.90;;;;;;5008368;28;20788;-70
2022/10/15 07:43:26;;;;;;;80.10;41.00;;;12.70;99.90;;;;;;5006368;28;20720;-70
2022/10/15 07:45:53;;;;;;;76.17;39.97;;;12.70;99.90;;;;;;5007550;28;20300;-70
2022/10/15 07:48:18;;;;;;;73.37;38.23;;;12.70;99.90;;;;;;5006972;28;20280;-70
2022/10/15 07:50:44;;;;;;;74.13;39.57;;;12.80;99.90;;;;;;5029983;28;20280;-70
2022/10/15 07:53:10;;;;;;;76.37;37.83;;;12.80;99.90;;;;;;4993239;28;20049;-71
2022/10/15 07:55:36;;;;;;;75.77;40.33;;;12.80;99.90;;;;;;5008158;28;20046;-70
2022/10/15 07:58:04;;;;;;;79.07;38.87;;;12.80;99.90;;;;;;5022383;28;20091;-70
2022/10/15 08:00:31;;;;;;;71.73;38.50;;;12.90;99.90;;;;;;5024046;28;20524;-70
2022/10/15 08:02:57;;;;;;;75.23;40.00;;;12.90;99.90;;;;;;5023150;28;20348;-70
2022/10/15 08:05:23;;;;;;;73.43;37.13;;;13.00;99.90;;;;;;5006388;28;20304;-72
2022/10/15 08:07:48;;;;;;;70.37;37.30;;;13.00;99.90;;;;;;4985098;28;20076;-72
2022/10/15 08:10:14;;;;;;;74.40;37.27;;;13.00;99.90;;;;;;5014976;28;20104;-73
2022/10/15 08:12:40;;;;;;;72.77;35.90;;;13.10;99.90;;;;;;5023660;28;20069;-72
2022/10/15 08:15:07;;;;;;;69.53;34.90;;;13.10;99.90;;;;;;4990266;28;20042;-71
2022/10/15 08:17:33;;;;;;;65.23;34.93;;;13.20;99.90;;;;;;5024423;28;20280;-72
2022/10/15 08:19:58;;;;;;;72.90;35.57;;;13.20;99.90;;;;;;5008275;28;20284;-71
2022/10/15 08:22:24;;;;;;;65.97;34.83;;;13.30;99.90;;;;;;5023337;28;20048;-72
2022/10/15 08:24:51;;;;;;;69.70;36.80;;;13.30;99.90;;;;;;5023047;28;20508;-71
2022/10/15 08:27:17;;;;;;;60.80;31.70;;;13.30;99.90;;;;;;5007298;28;20033;-72
2022/10/15 08:29:43;;;;;;;63.37;34.13;;;13.40;99.90;;;;;;5008067;28;20279;-72
2022/10/15 08:32:08;;;;;;;62.97;32.43;;;13.50;99.90;;;;;;5008305;28;20287;-72
2022/10/15 08:34:34;;;;;;;61.67;31.20;;;13.50;99.90;;;;;;5025048;28;20117;-71
2022/10/15 08:37:01;;;;;;;63.90;31.87;;;13.50;99.90;;;;;;5007809;28;20045;-72
2022/10/15 08:39:27;;;;;;;65.47;33.77;;;13.50;99.90;;;;;;5007783;28;20049;-72
2022/10/15 08:41:57;;;;;;;60.50;32.80;;;13.40;99.90;;;;;;5009218;28;20873;-71
2022/10/15 08:44:30;;;;;;;64.37;33.63;;;13.40;99.90;;;;;;5025225;28;20815;-71
2022/10/15 08:47:07;;;;;;;66.40;34.47;;;13.40;99.90;;;;;;5023561;28;20391;-71
2022/10/15 08:49:41;;;;;;;67.20;34.60;;;13.40;99.90;;;;;;5024686;28;20298;-71
2022/10/15 08:52:26;;;;;;;58.25;33.40;;;13.40;99.90;;;;;;5024384;28;20430;-72
2022/10/15 08:54:55;;;;;;;63.63;33.53;;;13.40;99.90;;;;;;5006420;28;20042;-71
2022/10/15 08:57:35;;;;;;;57.80;31.97;;;13.50;99.90;;;;;;5023995;28;20041;-71
2022/10/15 09:00:10;;;;;;;57.43;33.33;;;13.50;99.90;;;;;;5021670;28;20292;-72
2022/10/15 09:03:04;;;;;;;57.72;32.38;;;13.50;99.90;;;;;;5003197;28;20980;-71
2022/10/15 09:06:04;;;;;;;56.70;32.47;;;13.60;99.90;;;;;;5015323;28;20072;-70
2022/10/15 09:08:54;;;;;;;52.70;31.03;;;13.60;99.90;;;;;;5019348;28;20867;-71
2022/10/15 09:11:36;;;;;;;52.97;32.20;;;13.60;99.90;;;;;;5023316;28;20360;-71
2022/10/15 09:14:04;;;;;;;51.63;30.63;;;13.60;99.90;;;;;;5023738;28;20303;-71
2022/10/15 09:16:37;;;;;;;47.50;28.70;;;13.50;99.90;;;;;;5020572;28;20284;-71
2022/10/15 09:19:10;;;;;;;47.73;27.70;;;13.50;99.90;;;;;;5021476;28;20296;-71
2022/10/15 09:21:36;;;;;;;50.67;28.40;;;13.40;99.90;;;;;;5038330;28;20296;-71
2022/10/15 09:24:03;;;;;;;48.30;25.77;;;13.40;99.90;;;;;;5004068;28;20297;-71
2022/10/15 09:26:48;;;;;;;46.37;24.40;;;13.40;99.90;;;;;;5005650;28;20307;-71
2022/10/15 09:29:29;;;;;;;;;;;13.40;99.90;;;;;;5024310;28;20272;-72
2022/10/15 09:32:10;;;;;;;43.50;23.90;;;13.30;99.90;;;;;;5034306;28;19922;-72
2022/10/15 09:35:00;;;;;;;44.27;23.27;;;13.30;99.90;;;;;;5035748;28;20293;-72
2022/10/15 09:37:45;;;;;;;43.37;22.37;;;13.40;99.90;;;;;;5002954;28;20306;-72
2022/10/15 09:40:28;;;;;;;46.08;23.58;;;13.40;99.90;;;;;;5019349;28;20283;-72
2022/10/15 09:42:57;;;;;;;40.57;21.73;;;13.50;99.90;;;;;;5030908;28;20041;-72
2022/10/15 09:45:23;;;;;;;39.87;20.97;;;13.50;99.90;;;;;;5022921;28;20296;-72
2022/10/15 09:47:49;;;;;;;37.87;20.20;;;13.50;99.90;;;;;;5022107;28;20284;-71
2022/10/15 09:50:14;;;;;;;36.73;19.30;;;13.50;99.90;;;;;;5006050;28;20335;-71
2022/10/15 09:52:53;;;;;;;38.17;18.00;;;13.50;99.90;;;;;;5006120;28;20300;-71
2022/10/15 09:55:43;;;;;;;36.93;18.47;;;13.50;99.90;;;;;;5006684;28;20771;-71
2022/10/15 09:58:24;;;;;;;34.17;18.30;;;13.50;99.90;;;;;;5021549;28;20739;-71
2022/10/15 10:00:54;;;;;;;37.23;18.33;;;13.50;99.90;;;;;;5005982;28;20283;-71
2022/10/15 10:03:23;;;;;;;40.47;19.87;;;13.50;99.90;;;;;;5024320;28;20359;-71
2022/10/15 10:05:49;;;;;;;37.90;20.10;;;13.60;99.90;;;;;;5006444;28;20312;-72
2022/10/15 10:08:15;;;;;;;40.13;21.10;;;13.60;99.90;;;;;;5026316;28;20633;-71
2022/10/15 10:10:41;;;;;;;36.97;20.10;;;13.60;99.90;;;;;;5027388;28;20334;-71
2022/10/15 10:13:21;;;;;;;39.47;20.60;;;13.70;99.90;;;;;;5024503;28;20041;-72
2022/10/15 10:15:49;;;;;;;36.77;19.37;;;13.60;99.90;;;;;;5009724;28;20395;-72
2022/10/15 10:18:21;;;;;;;38.70;19.43;;;13.60;99.90;;;;;;5027026;28;20334;-72
2022/10/15 10:21:02;;;;;;;34.30;18.10;;;13.60;99.90;;;;;;5027661;28;20272;-72
2022/10/15 10:23:33;;;;;;;33.13;17.80;;;13.70;99.90;;;;;;5025621;28;20296;-72
2022/10/15 10:26:03;;;;;;;36.10;18.77;;;13.80;99.90;;;;;;5041381;28;20395;-72
2022/10/15 10:28:38;;;;;;;33.53;17.80;;;13.90;99.90;;;;;;5024940;28;20276;-72
2022/10/15 10:31:09;;;;;;;27.50;16.13;;;14.00;99.90;;;;;;5029084;28;20280;-72
2022/10/15 10:33:40;;;;;;;29.07;16.67;;;14.10;99.90;;;;;;5027352;28;20041;-72
2022/10/15 10:36:18;;;;;;;31.83;16.63;;;14.20;99.90;;;;;;5029413;28;20842;-72
2022/10/15 10:39:14;;;;;;;28.83;17.23;;;14.30;99.90;;;;;;5010880;28;20280;-72
2022/10/15 10:41:52;;;;;;;;;;;14.40;99.90;;;;;;5023783;28;20673;-72
2022/10/15 10:44:28;;;;;;;27.50;15.70;;;14.40;99.90;;;;;;5043063;28;19925;-70
2022/10/15 10:47:05;;;;;;;27.63;16.03;;;14.50;99.90;;;;;;5027180;28;20831;-70
2022/10/15 10:49:36;;;;;;;25.40;14.93;;;14.50;99.90;;;;;;5024891;28;20766;-70
2022/10/15 10:52:03;;;;;;;24.43;14.17;;;14.50;99.90;;;;;;5011837;28;20284;-72
2022/10/15 10:54:32;;;;;;;25.37;14.53;;;14.70;99.90;;;;;;5025379;28;20635;-72
2022/10/15 10:57:00;;;;;;;23.23;13.77;;;14.80;99.90;;;;;;5026646;28;20288;-72
2022/10/15 10:59:35;;;;;;;24.00;13.80;;;14.90;99.90;;;;;;5024164;28;20766;-72
2022/10/15 11:02:02;;;;;;;23.35;13.43;;;15.10;99.90;;;;;;5025748;28;20338;-72
2022/10/15 11:04:32;;;;;;;20.50;13.13;;;15.20;99.90;;;;;;5023821;28;20065;-72
2022/10/15 11:07:05;;;;;;;21.83;13.63;;;15.30;99.90;;;;;;5029755;28;20300;-72
2022/10/15 11:09:58;;;;;;;20.93;13.33;;;15.40;99.90;;;;;;5023757;28;20272;-72
2022/10/15 11:12:45;;;;;;;18.83;11.60;;;15.60;99.90;;;;;;5027541;28;20284;-72
2022/10/15 11:15:26;;;;;;;21.40;12.73;;;15.90;99.90;;;;;;5027126;28;20591;-72
2022/10/15 11:18:27;;;;;;;20.80;12.87;;;16.00;99.90;;;;;;5027003;28;20379;-72
2022/10/15 11:21:02;;;;;;;18.73;12.43;;;16.00;98.80;;;;;;5019027;28;20584;-72
2022/10/15 11:23:59;;;;;;;18.30;12.60;;;16.00;99.90;;;;;;5021823;28;20745;-72
2022/10/15 11:26:43;;;;;;;18.73;12.30;;;16.10;98.80;;;;;;5008746;28;20820;-72
2022/10/15 11:29:32;;;;;;;17.10;12.07;;;16.10;99.50;;;;;;5026181;28;20280;-72
2022/10/15 11:32:36;;;;;;;17.70;11.53;;;16.10;99.00;;;;;;5014517;28;20343;-72
2022/10/15 11:35:28;;;;;;;17.47;12.03;;;16.00;99.10;;;;;;4992319;28;20775;-72
2022/10/15 11:38:22;;;;;;;16.93;10.90;;;16.00;98.90;;;;;;5024801;28;20288;-72
2022/10/15 11:41:13;;;;;;;14.73;10.50;;;16.00;99.00;;;;;;5024665;28;20307;-73
2022/10/15 11:44:33;;;;;;;14.77;10.00;;;16.00;99.20;;;;;;5025468;28;20288;-72
2022/10/15 11:47:08;;;;;;;15.63;10.57;;;16.10;98.60;;;;;;4968675;28;20317;-72
2022/10/15 11:49:55;;;;;;;16.73;10.65;;;16.20;98.20;;;;;;5015873;28;20299;-72
2022/10/15 11:52:52;;;;;;;15.60;10.17;;;16.30;98.20;;;;;;5039899;28;20061;-72
2022/10/15 11:55:40;;;;;;;13.87;9.13;;;16.30;96.90;;;;;;5023584;28;20946;-72
2022/10/15 11:58:18;;;;;;;13.37;9.13;;;16.40;97.60;;;;;;5025469;28;20292;-72
2022/10/15 12:00:53;;;;;;;15.87;9.77;;;16.40;97.80;;;;;;5024640;28;20284;-72
2022/10/15 12:03:25;;;;;;;13.97;10.50;;;16.50;97.60;;;;;;5026255;28;20619;-72
2022/10/15 12:05:57;;;;;;;11.53;9.67;;;16.40;96.60;;;;;;5019457;28;20300;-72
2022/10/15 12:08:27;;;;;;;15.43;9.93;;;16.40;97.00;;;;;;5034205;28;20284;-72
2022/10/15 12:10:58;;;;;;;14.50;9.33;;;16.40;97.30;;;;;;5028992;28;20646;-72
2022/10/15 12:13:41;;;;;;;12.77;9.43;;;16.40;97.60;;;;;;5033665;28;20887;-72
2022/10/15 12:16:35;;;;;;;16.53;10.67;;;16.30;97.10;;;;;;5024300;28;20643;-73
2022/10/15 12:19:16;;;;;;;15.87;10.70;;;16.20;96.90;;;;;;5022857;28;20288;-72
2022/10/15 12:21:54;;;;;;;14.40;10.53;;;16.20;97.70;;;;;;5033931;28;20680;-72
2022/10/15 12:24:43;;;;;;;14.37;10.60;;;16.20;98.10;;;;;;5030613;28;20350;-72
2022/10/15 12:27:18;;;;;;;13.47;9.90;;;16.20;98.30;;;;;;5030538;28;20803;-72
2022/10/15 12:30:10;;;;;;;16.20;11.90;;;16.10;98.90;;;;;;5005834;28;20306;-73
2022/10/15 12:32:40;;;;;;;15.27;10.63;;;16.00;99.10;;;;;;5007166;28;20284;-72
2022/10/15 12:35:20;;;;;;;15.10;10.47;;;15.80;98.80;;;;;;5026979;28;20696;-72
2022/10/15 12:37:48;;;;;;;16.60;10.37;;;15.70;99.40;;;;;;5030877;28;20778;-73
2022/10/15 12:40:20;;;;;;;15.80;11.73;;;15.50;99.90;;;;;;5023632;28;20981;-72
2022/10/15 12:42:54;;;;;;;15.17;11.13;;;15.40;99.90;;;;;;5023964;28;20636;-73
2022/10/15 12:45:23;;;;;;;17.10;11.10;;;15.30;99.90;;;;;;5014660;28;20364;-72
2022/10/15 12:47:53;;;;;;;14.63;10.27;;;15.30;99.90;;;;;;5022298;28;20430;-72
2022/10/15 12:50:30;;;;;;;15.20;10.80;;;15.20;99.90;;;;;;5023509;28;20280;-72